Time;durP1;ratioP1;P1;durP2;ratioP2;P2;SDS_P1;SDS_P2;PMS_P1;PMS_P2;Temp;Humidity;BMP_temperature;BMP_pressure;BME280_temperature;BME280_humidity;BME280_pressure;Samples;Min_cycle;Max_cycle;Signal;HPM_P1;HPM_P2
2023/04/25 00:02:14;;;;;;;10.13;3.30;;;;;;;5.90;100.00;100842.19;5029970;28;20053;-58
2023/04/25 00:04:43;;;;;;;13.77;3.33;;;;;;;5.87;100.00;100847.50;5028632;28;20041;-57
2023/04/25 00:07:13;;;;;;;11.25;2.90;;;;;;;5.89;100.00;100850.91;5029135;28;20042;-57
2023/04/25 00:09:41;;;;;;;10.43;2.47;;;;;;;5.82;100.00;100846.03;5029431;28;20309;-57
2023/04/25 00:12:09;;;;;;;11.20;2.78;;;;;;;5.83;100.00;100851.19;5029617;28;20053;-57
2023/04/25 00:14:37;;;;;;;12.10;2.85;;;;;;;5.78;100.00;100855.78;5029873;28;20060;-57
2023/04/25 00:17:05;;;;;;;15.80;3.80;;;;;;;5.70;100.00;100858.72;5029554;28;20440;-57
2023/04/25 00:19:34;;;;;;;13.05;3.00;;;;;;;5.65;100.00;100863.28;5031008;28;20523;-57
2023/04/25 00:22:02;;;;;;;11.13;2.75;;;;;;;5.68;100.00;100863.16;5032616;28;20051;-57
2023/04/25 00:24:32;;;;;;;13.13;2.92;;;;;;;5.61;100.00;100866.97;5032638;28;20048;-57
2023/04/25 00:27:00;;;;;;;14.02;3.55;;;;;;;5.52;100.00;100880.41;5032929;28;20397;-58
2023/04/25 00:29:28;;;;;;;16.25;3.05;;;;;;;5.50;100.00;100885.69;5031144;28;20049;-58
2023/04/25 00:31:56;;;;;;;13.60;3.13;;;;;;;5.38;100.00;100876.63;5029290;28;20056;-58
2023/04/25 00:34:25;;;;;;;13.65;3.33;;;;;;;5.41;100.00;100879.13;5032034;28;20049;-57
2023/04/25 00:36:53;;;;;;;13.88;3.10;;;;;;;5.38;100.00;100878.38;5032456;28;20053;-58
2023/04/25 00:39:21;;;;;;;10.07;3.28;;;;;;;5.40;100.00;100882.63;5029578;28;20064;-58
2023/04/25 00:41:53;;;;;;;17.35;3.47;;;;;;;5.41;100.00;100886.94;5029630;28;20042;-58
2023/04/25 00:44:21;;;;;;;13.85;3.20;;;;;;;5.43;100.00;100884.25;5029285;28;20045;-58
2023/04/25 00:46:50;;;;;;;10.75;3.22;;;;;;;5.38;100.00;100881.00;5029202;28;20089;-58
2023/04/25 00:49:18;;;;;;;11.30;4.13;;;;;;;5.35;100.00;100883.75;5028510;28;20073;-57
2023/04/25 00:51:46;;;;;;;9.35;3.13;;;;;;;5.32;100.00;100887.31;5027560;28;20440;-58
2023/04/25 00:54:15;;;;;;;11.93;3.13;;;;;;;5.31;100.00;100885.63;5033368;28;20057;-58
2023/04/25 00:56:45;;;;;;;13.07;2.90;;;;;;;5.32;100.00;100889.09;5033544;28;20072;-58
2023/04/25 00:59:15;;;;;;;12.57;3.20;;;;;;;5.33;100.00;100888.16;5032194;28;20049;-58
2023/04/25 01:01:43;;;;;;;15.75;3.75;;;;;;;5.28;100.00;100890.16;5032988;28;20187;-58
2023/04/25 01:04:12;;;;;;;13.25;3.33;;;;;;;5.29;100.00;100887.47;5031375;28;20111;-58
2023/04/25 01:06:41;;;;;;;11.98;3.33;;;;;;;5.32;100.00;100891.72;5033006;28;20068;-58
2023/04/25 01:09:09;;;;;;;11.85;3.40;;;;;;;5.32;100.00;100891.72;5035876;28;20052;-58
2023/04/25 01:11:37;;;;;;;14.07;3.42;;;;;;;5.41;100.00;100888.69;5034348;28;20041;-58
2023/04/25 01:14:05;;;;;;;13.20;3.75;;;;;;;5.38;100.00;100888.81;5032272;28;20080;-58
2023/04/25 01:16:36;;;;;;;13.25;3.80;;;;;;;5.42;100.00;100893.00;5035112;28;20064;-57
2023/04/25 01:19:10;;;;;;;12.55;3.35;;;;;;;5.41;100.00;100893.91;5035725;28;20551;-58
2023/04/25 01:21:40;;;;;;;18.13;3.20;;;;;;;5.40;100.00;100897.44;5035783;28;20053;-58
2023/04/25 01:24:08;;;;;;;12.52;3.42;;;;;;;5.40;100.00;100898.28;5034519;28;20467;-58
2023/04/25 01:26:37;;;;;;;11.68;3.33;;;;;;;5.37;100.00;100901.03;5032910;28;20045;-57
2023/04/25 01:29:05;;;;;;;12.80;3.80;;;;;;;5.38;100.00;100901.88;5035141;28;20099;-58
2023/04/25 01:31:36;;;;;;;16.60;3.83;;;;;;;5.39;100.00;100903.56;5035852;28;20054;-58
2023/04/25 01:34:04;;;;;;;10.13;3.22;;;;;;;5.38;100.00;100914.91;5035965;28;20560;-58
2023/04/25 01:36:33;;;;;;;15.88;3.83;;;;;;;5.34;100.00;100910.72;5035830;28;20128;-58
2023/04/25 01:39:06;;;;;;;13.45;4.07;;;;;;;5.30;100.00;100914.38;5035620;28;20041;-58
2023/04/25 01:41:35;;;;;;;15.60;4.60;;;;;;;5.26;100.00;100908.44;5035607;28;20054;-60
2023/04/25 01:44:03;;;;;;;14.15;3.80;;;;;;;5.27;100.00;100909.31;5035177;28;20049;-57
2023/04/25 01:46:32;;;;;;;17.83;4.18;;;;;;;5.32;100.00;100912.56;5032613;28;20362;-58
2023/04/25 01:49:00;;;;;;;16.33;4.35;;;;;;;5.28;100.00;100911.00;5033529;28;20042;-57
2023/04/25 01:51:29;;;;;;;14.85;4.03;;;;;;;5.22;100.00;100912.09;5035077;28;20076;-57
2023/04/25 01:53:58;;;;;;;18.50;3.92;;;;;;;5.19;100.00;100910.44;5032792;28;20041;-57
2023/04/25 01:56:32;;;;;;;14.73;4.22;;;;;;;5.18;100.00;100919.22;5032925;28;20059;-57
2023/04/25 01:59:01;;;;;;;16.05;4.10;;;;;;;5.22;100.00;100912.94;5034132;28;20108;-57
2023/04/25 02:01:29;;;;;;;16.73;4.40;;;;;;;5.21;100.00;100919.06;5032239;28;20399;-57
2023/04/25 02:03:57;;;;;;;14.70;4.15;;;;;;;5.21;100.00;100916.47;5033447;28;20154;-57
2023/04/25 02:06:25;;;;;;;15.77;3.80;;;;;;;5.22;100.00;100925.13;5032136;28;20056;-57
2023/04/25 02:08:53;;;;;;;13.85;3.72;;;;;;;5.19;100.00;100927.88;5031686;28;20060;-57
2023/04/25 02:11:24;;;;;;;14.00;3.85;;;;;;;5.18;100.00;100931.38;5032274;28;20064;-58
2023/04/25 02:13:54;;;;;;;19.23;3.95;;;;;;;5.18;100.00;100932.25;5031555;28;20058;-57
2023/04/25 02:16:22;;;;;;;13.85;3.65;;;;;;;5.16;100.00;100930.59;5032175;28;20045;-57
2023/04/25 02:18:53;;;;;;;13.85;4.90;;;;;;;5.22;100.00;100933.81;5031712;28;20295;-57
2023/04/25 02:21:21;;;;;;;17.10;3.70;;;;;;;5.27;100.00;100935.38;5030918;28;20049;-57
2023/04/25 02:23:51;;;;;;;18.48;3.97;;;;;;;5.25;100.00;100938.88;5031380;28;20087;-58
2023/04/25 02:26:20;;;;;;;12.27;3.83;;;;;;;5.28;100.00;100937.09;5032058;28;20505;-58
2023/04/25 02:28:49;;;;;;;15.40;3.90;;;;;;;5.29;100.00;100938.75;5030844;28;20041;-57
2023/04/25 02:31:18;;;;;;;15.80;4.53;;;;;;;5.26;100.00;100939.72;5031058;28;20046;-57
2023/04/25 02:33:47;;;;;;;15.27;4.38;;;;;;;5.18;100.00;100940.06;5034467;28;20050;-57
2023/04/25 02:36:15;;;;;;;15.02;4.57;;;;;;;5.13;100.00;100939.41;5034065;28;20046;-58
2023/04/25 02:38:43;;;;;;;18.55;4.10;;;;;;;5.13;100.00;100944.63;5031247;28;20049;-58
2023/04/25 02:41:15;;;;;;;17.67;3.90;;;;;;;5.10;100.00;100944.75;5031368;28;20164;-58
2023/04/25 02:43:43;;;;;;;16.98;4.50;;;;;;;5.10;100.00;100944.75;5031292;28;20053;-58
2023/04/25 02:46:11;;;;;;;16.67;3.83;;;;;;;5.01;100.00;100943.34;5031350;28;20377;-58
2023/04/25 02:48:40;;;;;;;14.75;3.88;;;;;;;5.02;100.00;100944.22;5033615;28;20045;-58
2023/04/25 02:51:08;;;;;;;21.20;4.95;;;;;;;4.99;100.00;100947.78;5027980;28;20369;-58
2023/04/25 02:53:36;;;;;;;15.43;3.80;;;;;;;4.96;100.00;100944.44;5031112;28;20096;-58
2023/04/25 02:56:05;;;;;;;15.63;3.65;;;;;;;4.87;100.00;100954.31;5032889;28;20053;-57
2023/04/25 02:58:33;;;;;;;12.82;4.05;;;;;;;4.95;100.00;100951.41;5031476;28;20045;-57
2023/04/25 03:01:01;;;;;;;15.20;3.95;;;;;;;4.99;100.00;100952.13;5030812;28;20046;-57
2023/04/25 03:03:30;;;;;;;12.18;3.55;;;;;;;4.95;100.00;100956.63;5031784;28;20133;-57
2023/04/25 03:06:02;;;;;;;17.77;3.78;;;;;;;4.91;100.00;100950.69;5032346;28;20053;-57
2023/04/25 03:08:32;;;;;;;15.30;3.45;;;;;;;4.95;100.00;100956.63;5030970;28;20096;-57
2023/04/25 03:11:00;;;;;;;14.85;3.53;;;;;;;4.92;100.00;100946.31;5033033;28;20041;-57
2023/04/25 03:13:29;;;;;;;11.57;3.25;;;;;;;4.87;100.00;100946.50;5030658;28;20042;-58
2023/04/25 03:15:57;;;;;;;14.27;3.70;;;;;;;4.87;100.00;100951.72;5029995;28;20045;-58
2023/04/25 03:18:25;;;;;;;20.00;3.78;;;;;;;4.81;100.00;100953.72;5033542;28;20107;-58
2023/04/25 03:20:54;;;;;;;13.00;3.53;;;;;;;4.81;100.00;100959.75;5033651;28;20041;-58
2023/04/25 03:23:23;;;;;;;12.55;3.10;;;;;;;4.78;100.00;100962.50;5033704;28;20112;-57
2023/04/25 03:25:51;;;;;;;16.27;4.15;;;;;;;4.72;100.00;100967.97;5033771;28;20120;-57
2023/04/25 03:28:21;;;;;;;13.65;3.85;;;;;;;4.74;100.00;100976.56;5033714;28;20052;-57
2023/04/25 03:30:49;;;;;;;11.77;3.08;;;;;;;4.75;100.00;100975.66;5033528;28;20064;-58
2023/04/25 03:33:20;;;;;;;15.98;3.55;;;;;;;4.72;100.00;100973.16;5033255;28;20096;-57
2023/04/25 03:35:49;;;;;;;15.25;3.33;;;;;;;4.69;100.00;100975.88;5033027;28;20504;-57
2023/04/25 03:38:18;;;;;;;9.55;3.13;;;;;;;4.68;100.00;100969.81;5033331;28;20439;-57
2023/04/25 03:40:48;;;;;;;19.60;3.50;;;;;;;4.60;100.00;100971.03;5029678;28;20057;-56
2023/04/25 03:43:16;;;;;;;14.95;3.92;;;;;;;4.61;100.00;100964.91;5031363;28;20103;-56
2023/04/25 03:45:44;;;;;;;9.10;3.15;;;;;;;4.56;100.00;100976.34;5033382;28;20037;-57
2023/04/25 03:48:12;;;;;;;12.63;3.13;;;;;;;4.53;100.00;100976.47;5031365;28;20135;-57
2023/04/25 03:50:43;;;;;;;15.25;3.97;;;;;;;4.47;100.00;100984.53;5028608;28;20049;-56
2023/04/25 03:53:12;;;;;;;12.88;3.40;;;;;;;4.47;100.00;100981.94;5029861;28;20050;-57
2023/04/25 03:55:40;;;;;;;11.38;3.25;;;;;;;4.44;100.00;100975.97;5029381;28;20064;-58
2023/04/25 03:58:11;;;;;;;13.38;3.65;;;;;;;4.46;100.00;100977.63;5030023;28;20405;-58
2023/04/25 04:00:39;;;;;;;18.23;3.75;;;;;;;4.46;100.00;100987.16;5029006;28;20496;-58
2023/04/25 04:03:08;;;;;;;12.73;3.67;;;;;;;4.46;100.00;100979.34;5029423;28;20448;-57
2023/04/25 04:05:36;;;;;;;12.25;3.65;;;;;;;4.47;100.00;100981.06;5027845;28;20049;-57
2023/04/25 04:08:05;;;;;;;15.85;4.28;;;;;;;4.37;100.00;100978.78;5029851;28;20049;-57
2023/04/25 04:10:36;;;;;;;14.82;3.50;;;;;;;4.32;100.00;100987.69;5032667;28;20081;-58
2023/04/25 04:13:04;;;;;;;22.15;4.50;;;;;;;4.30;100.00;100989.50;5032763;28;20362;-57
2023/04/25 04:15:33;;;;;;;14.70;3.53;;;;;;;4.22;100.00;100987.16;5029845;28;20072;-57
2023/04/25 04:18:02;;;;;;;17.48;3.78;;;;;;;4.18;100.00;100986.44;5029475;28;20627;-57
2023/04/25 04:20:33;;;;;;;10.35;3.53;;;;;;;4.13;100.00;100993.56;5031788;28;20061;-57
2023/04/25 04:23:01;;;;;;;15.65;3.47;;;;;;;4.18;100.00;100996.00;5028844;28;20332;-57
2023/04/25 04:25:31;;;;;;;14.52;3.63;;;;;;;4.01;100.00;100999.22;5029471;28;20042;-57
2023/04/25 04:28:00;;;;;;;11.63;3.83;;;;;;;4.08;100.00;101005.91;5030931;28;20084;-56
2023/04/25 04:30:29;;;;;;;11.68;3.20;;;;;;;4.04;100.00;101005.13;5032442;28;20424;-57
2023/04/25 04:32:58;;;;;;;15.10;3.80;;;;;;;3.96;100.00;101011.53;5032670;28;20046;-58
2023/04/25 04:35:26;;;;;;;10.30;3.22;;;;;;;3.94;100.00;101008.13;5032416;28;20045;-57
2023/04/25 04:37:56;;;;;;;10.38;3.50;;;;;;;3.88;100.00;101007.41;5032571;28;20042;-57
2023/04/25 04:40:25;;;;;;;11.98;3.15;;;;;;;3.88;100.00;101014.38;5031095;28;20049;-57
2023/04/25 04:42:56;;;;;;;14.40;3.65;;;;;;;3.79;100.00;101010.38;5032121;28;20057;-57
2023/04/25 04:45:27;;;;;;;12.90;3.65;;;;;;;3.77;100.00;101011.31;5032360;28;20049;-57
2023/04/25 04:47:56;;;;;;;13.80;3.40;;;;;;;3.75;100.00;101024.38;5030769;28;20037;-57
2023/04/25 04:50:27;;;;;;;16.85;3.40;;;;;;;3.73;100.00;101021.81;5027911;28;20413;-57
2023/04/25 04:52:55;;;;;;;13.18;3.95;;;;;;;3.78;100.00;101020.81;5030608;28;20045;-57
2023/04/25 04:55:23;;;;;;;15.82;4.55;;;;;;;3.74;100.00;101025.28;5032274;28;20073;-57
2023/04/25 04:57:51;;;;;;;13.68;4.78;;;;;;;3.74;100.00;101035.69;5031390;28;20049;-51
2023/04/25 05:00:20;;;;;;;15.75;4.85;;;;;;;3.80;100.00;101039.81;5028443;28;20045;-53
2023/04/25 05:02:51;;;;;;;18.33;4.85;;;;;;;3.83;100.00;101058.78;5030152;28;20072;-50
2023/04/25 05:05:20;;;;;;;15.63;5.07;;;;;;;3.80;100.00;101055.44;5032017;28;20046;-58
2023/04/25 05:07:49;;;;;;;15.10;4.88;;;;;;;3.82;100.00;101057.09;5032074;28;20053;-57
2023/04/25 05:10:18;;;;;;;16.20;4.75;;;;;;;3.92;100.00;101067.19;5031865;28;20429;-58
2023/04/25 05:12:46;;;;;;;15.40;4.40;;;;;;;3.95;100.00;101067.91;5028718;28;20140;-58
2023/04/25 05:15:14;;;;;;;10.68;4.30;;;;;;;3.99;100.00;101063.47;5028800;28;20073;-58
2023/04/25 05:17:42;;;;;;;17.92;4.18;;;;;;;4.08;100.00;101065.75;5027661;28;20049;-58
2023/04/25 05:20:11;;;;;;;16.80;5.13;;;;;;;4.06;100.00;101063.22;5031331;28;20052;-58
2023/04/25 05:22:41;;;;;;;16.88;5.25;;;;;;;4.05;100.00;101071.09;5031593;28;20041;-58
2023/04/25 05:25:11;;;;;;;15.13;4.55;;;;;;;4.08;100.00;101078.78;5028756;28;20330;-59
2023/04/25 05:27:39;;;;;;;15.93;4.90;;;;;;;4.06;100.00;101073.63;5029814;28;20128;-58
2023/04/25 05:30:08;;;;;;;11.25;4.05;;;;;;;4.15;100.00;101084.63;5028293;28;20088;-58
2023/04/25 05:32:36;;;;;;;15.15;4.10;;;;;;;4.10;100.00;101087.38;5026926;28;20515;-58
2023/04/25 05:35:06;;;;;;;14.20;4.20;;;;;;;4.16;100.00;101089.78;5027559;28;20041;-58
2023/04/25 05:37:34;;;;;;;17.17;5.00;;;;;;;4.20;100.00;101083.56;5028776;28;20054;-57
2023/04/25 05:40:06;;;;;;;12.20;3.90;;;;;;;4.27;100.00;101088.53;5033090;28;20107;-58
2023/04/25 05:42:35;;;;;;;17.33;4.30;;;;;;;4.26;100.00;101094.69;5033797;28;20575;-58
2023/04/25 05:45:07;;;;;;;19.35;4.13;;;;;;;4.31;100.00;101091.00;5030686;28;20053;-58
2023/04/25 05:47:35;;;;;;;14.63;4.00;;;;;;;4.39;100.00;101094.19;5031944;28;20046;-58
2023/04/25 05:50:04;;;;;;;18.95;4.80;;;;;;;4.38;100.00;101094.25;5031153;28;20533;-56
2023/04/25 05:52:32;;;;;;;14.10;3.92;;;;;;;4.46;100.00;101096.56;5034799;28;20116;-56
2023/04/25 05:55:00;;;;;;;12.68;3.88;;;;;;;4.49;100.00;101107.72;5033675;28;20049;-57
2023/04/25 05:57:28;;;;;;;16.13;4.30;;;;;;;4.53;100.00;101111.91;5030718;28;20108;-56
2023/04/25 05:59:58;;;;;;;10.57;3.17;;;;;;;4.54;100.00;101116.22;5031119;28;20081;-57
2023/04/25 06:02:26;;;;;;;12.48;4.60;;;;;;;4.56;100.00;101129.19;5032218;28;20504;-57
2023/04/25 06:04:54;;;;;;;12.00;3.95;;;;;;;4.49;100.00;101131.16;5031793;28;20124;-56
2023/04/25 06:07:23;;;;;;;15.13;3.95;;;;;;;4.51;100.00;101129.38;5035097;28;20481;-58
2023/04/25 06:09:51;;;;;;;12.02;4.00;;;;;;;4.57;100.00;101136.13;5035201;28;20049;-58
2023/04/25 06:12:19;;;;;;;13.13;3.80;;;;;;;4.57;100.00;101136.97;5032704;28;20029;-52
2023/04/25 06:14:50;;;;;;;8.40;3.63;;;;;;;4.63;100.00;101137.66;5030735;28;20047;-59
2023/04/25 06:17:19;;;;;;;11.88;3.42;;;;;;;4.78;100.00;101136.25;5031962;28;20120;-58
2023/04/25 06:19:48;;;;;;;17.85;3.97;;;;;;;4.78;100.00;101138.84;5031692;28;20045;-56
2023/04/25 06:22:16;;;;;;;14.15;3.17;;;;;;;4.83;100.00;101139.56;5034881;28;20144;-58
2023/04/25 06:24:45;;;;;;;14.15;3.40;;;;;;;4.89;100.00;101149.72;5034789;28;20049;-58
2023/04/25 06:27:16;;;;;;;9.85;2.85;;;;;;;4.86;100.00;101150.69;5032273;28;20052;-54
2023/04/25 06:29:44;;;;;;;10.00;3.15;;;;;;;5.00;100.00;101155.41;5029907;28;20509;-53
2023/04/25 06:32:12;;;;;;;9.82;2.90;;;;;;;5.04;100.00;101145.72;5033201;28;20437;-53
2023/04/25 06:34:45;;;;;;;10.30;2.88;;;;;;;5.11;100.00;101141.97;5031372;28;20073;-57
2023/04/25 06:37:16;;;;;;;11.27;3.15;;;;;;;5.21;100.00;101145.94;5030693;28;20072;-53
2023/04/25 06:39:44;;;;;;;9.45;3.30;;;;;;;5.38;100.00;101149.66;5033616;28;20119;-52
2023/04/25 06:42:12;;;;;;;12.70;3.00;;;;;;;5.48;100.00;101148.41;5034217;28;20045;-52
2023/04/25 06:44:40;;;;;;;7.95;2.67;;;;;;;5.52;100.00;101155.19;5034303;28;20054;-52
2023/04/25 06:47:09;;;;;;;9.75;2.72;;;;;;;5.65;100.00;101152.94;5034544;28;20076;-53
2023/04/25 06:49:37;;;;;;;11.25;2.45;;;;;;;5.69;100.00;101153.69;5034108;28;20049;-57
2023/04/25 06:52:06;;;;;;;10.65;2.97;;;;;;;5.74;100.00;101160.41;5033861;28;20569;-51
2023/04/25 06:54:34;;;;;;;10.82;2.80;;;;;;;5.89;100.00;101153.72;5033440;28;20099;-54
2023/04/25 06:57:02;;;;;;;10.50;3.63;;;;;;;5.97;100.00;101155.16;5030337;28;20061;-55
2023/04/25 06:59:31;;;;;;;11.07;2.40;;;;;;;6.04;100.00;101157.50;5031940;28;20049;-53
2023/04/25 07:01:59;;;;;;;9.20;2.78;;;;;;;6.15;100.00;101164.91;5033949;28;20046;-52
2023/04/25 07:04:27;;;;;;;8.43;2.17;;;;;;;6.18;100.00;101170.00;5033953;28;20049;-53
2023/04/25 07:06:55;;;;;;;9.52;2.55;;;;;;;6.31;100.00;101172.94;5031971;28;20052;-53
2023/04/25 07:09:25;;;;;;;7.40;2.47;;;;;;;6.38;100.00;101165.69;5030564;28;20518;-53
2023/04/25 07:11:53;;;;;;;11.38;2.72;;;;;;;6.34;100.00;101172.81;5031439;28;20520;-51
2023/04/25 07:14:21;;;;;;;11.75;2.65;;;;;;;6.42;100.00;101177.69;5033302;28;20080;-53
2023/04/25 07:16:49;;;;;;;11.77;2.83;;;;;;;6.53;100.00;101174.63;5033737;28;20465;-54
2023/04/25 07:19:17;;;;;;;10.25;3.03;;;;;;;6.64;100.00;101176.78;5033688;28;20041;-51
2023/04/25 07:21:48;;;;;;;12.15;3.88;;;;;;;6.73;100.00;101182.47;5032482;28;20052;-53
2023/04/25 07:24:17;;;;;;;15.70;3.00;;;;;;;6.80;100.00;101190.88;5029937;28;20080;-52
2023/04/25 07:26:47;;;;;;;10.98;2.83;;;;;;;6.94;100.00;101187.69;5029799;28;20048;-53
2023/04/25 07:29:15;;;;;;;11.90;3.20;;;;;;;7.10;100.00;101188.69;5028734;28;20523;-52
2023/04/25 07:31:43;;;;;;;10.60;2.35;;;;;;;7.22;100.00;101191.66;5032333;28;20056;-53
2023/04/25 07:34:11;;;;;;;10.73;2.88;;;;;;;7.51;100.00;101187.72;5033648;28;20061;-52
2023/04/25 07:36:39;;;;;;;12.52;2.53;;;;;;;7.68;100.00;101186.06;5033440;28;20214;-54
2023/04/25 07:39:08;;;;;;;8.65;2.40;;;;;;;7.86;100.00;101190.41;5033710;28;20508;-54
2023/04/25 07:41:36;;;;;;;10.30;2.42;;;;;;;8.03;100.00;101194.84;5033288;28;20041;-53
2023/04/25 07:44:06;;;;;;;13.50;2.50;;;;;;;8.22;100.00;101184.31;5033230;28;20147;-55
2023/04/25 07:46:34;;;;;;;9.73;2.40;;;;;;;8.04;100.00;101193.91;5032553;28;20080;-55
2023/04/25 07:49:02;;;;;;;8.23;2.30;;;;;;;8.16;100.00;101192.47;5028382;28;20072;-52
2023/04/25 07:51:31;;;;;;;12.25;2.33;;;;;;;8.29;100.00;101188.31;5030370;28;20045;-54
2023/04/25 07:53:59;;;;;;;8.77;2.42;;;;;;;8.45;100.00;101198.03;5029151;28;20077;-55
2023/04/25 07:56:27;;;;;;;8.60;2.20;;;;;;;8.49;100.00;101202.22;5029140;28;20560;-55
2023/04/25 07:59:06;;;;;;;7.25;2.30;;;;;;;8.65;100.00;101206.69;5029397;28;20057;-53
2023/04/25 08:01:35;;;;;;;7.50;2.00;;;;;;;8.35;100.00;101209.91;5028365;28;20076;-55
2023/04/25 08:04:03;;;;;;;10.02;2.00;;;;;;;8.30;100.00;101204.88;5029954;28;20072;-55
2023/04/25 08:06:32;;;;;;;12.43;2.13;;;;;;;8.38;100.00;101209.75;5032695;28;20103;-54
2023/04/25 08:09:01;;;;;;;9.07;2.13;;;;;;;8.49;100.00;101228.41;5032803;28;20107;-55
2023/04/25 08:11:29;;;;;;;9.52;2.72;;;;;;;8.45;100.00;101217.25;5032649;28;20052;-54
2023/04/25 08:13:57;;;;;;;11.40;2.22;;;;;;;8.51;100.00;101223.97;5030059;28;20069;-55
2023/04/25 08:16:26;;;;;;;11.90;2.05;;;;;;;8.51;100.00;101231.84;5028706;28;20562;-55
2023/04/25 08:18:55;;;;;;;6.35;1.50;;;;;;;8.76;100.00;101231.41;5029774;28;20104;-55
2023/04/25 08:21:23;;;;;;;10.65;1.80;;;;;;;8.86;100.00;101229.19;5029380;28;20144;-55
2023/04/25 08:23:51;;;;;;;9.57;1.85;;;;;;;9.19;100.00;101230.97;5028132;28;20124;-55
2023/04/25 08:26:19;;;;;;;7.57;1.40;;;;;;;9.47;100.00;101229.47;5032468;28;20068;-55
2023/04/25 08:28:47;;;;;;;7.35;1.48;;;;;;;9.48;100.00;101239.06;5031081;28;20056;-60
2023/04/25 08:31:16;;;;;;;5.95;1.42;;;;;;;9.80;100.00;101237.28;5028102;28;20045;-60
2023/04/25 08:33:45;;;;;;;7.00;1.30;;;;;;;9.98;100.00;101239.81;5028907;28;20091;-61
2023/04/25 08:36:14;;;;;;;7.82;1.13;;;;;;;10.28;100.00;101239.84;5029655;28;20050;-60
2023/04/25 08:38:59;;;;;;;7.65;1.17;;;;;;;10.53;100.00;101235.81;5030962;28;20049;-59
2023/04/25 08:41:29;;;;;;;8.32;1.23;;;;;;;10.46;100.00;101230.06;5030797;28;20103;-60
2023/04/25 08:44:00;;;;;;;10.45;1.50;;;;;;;10.27;100.00;101240.78;5026916;28;20050;-60
2023/04/25 08:46:28;;;;;;;10.45;1.67;;;;;;;10.21;100.00;101251.66;5028401;28;20492;-60
2023/04/25 08:49:02;;;;;;;4.25;1.20;;;;;;;10.06;100.00;101250.75;5031472;28;20069;-60
2023/04/25 08:51:33;;;;;;;4.70;1.20;;;;;;;9.94;100.00;101259.31;5032483;28;20457;-59
2023/04/25 08:54:10;;;;;;;10.27;1.50;;;;;;;9.93;100.00;101261.09;5031819;28;20737;-60
2023/04/25 08:57:01;;;;;;;8.73;1.38;;;;;;;9.81;100.00;101259.97;5029520;28;20057;-60
2023/04/25 08:59:30;;;;;;;6.07;1.30;;;;;;;9.92;100.00;101264.63;5028764;28;20046;-60
2023/04/25 09:02:01;;;;;;;7.75;1.52;;;;;;;9.97;100.00;101277.53;5031114;28;20052;-61
2023/04/25 09:04:34;;;;;;;7.22;1.48;;;;;;;9.89;100.00;101279.75;5027189;28;20033;-60
2023/04/25 09:07:02;;;;;;;6.57;1.30;;;;;;;10.14;100.00;101284.47;5030362;28;20046;-60
2023/04/25 09:09:31;;;;;;;5.40;1.40;;;;;;;10.13;100.00;101281.00;5029835;28;20048;-61
2023/04/25 09:12:01;;;;;;;8.65;1.13;;;;;;;10.19;100.00;101286.84;5028663;28;20745;-60
2023/04/25 09:14:29;;;;;;;9.27;1.42;;;;;;;9.93;100.00;101300.50;5034244;28;20048;-60
2023/04/25 09:17:03;;;;;;;6.78;1.70;;;;;;;9.95;100.00;101308.28;5036018;28;20045;-60
2023/04/25 09:19:32;;;;;;;5.95;1.10;;;;;;;9.80;100.00;101304.72;5032507;28;20046;-61
2023/04/25 09:22:05;;;;;;;6.25;1.33;;;;;;;9.70;100.00;101311.41;5031489;28;20523;-62
2023/04/25 09:24:38;;;;;;;6.97;1.33;;;;;;;9.78;100.00;101317.94;5032087;28;20045;-61
2023/04/25 09:27:06;;;;;;;;;;;;;;;9.69;100.00;101313.19;5031334;28;20061;-60
2023/04/25 09:29:39;;;;;;;5.47;1.25;;;;;;;9.56;100.00;101312.16;5033251;28;19928;-61
2023/04/25 09:32:19;;;;;;;6.07;1.10;;;;;;;9.34;99.14;101307.19;5032964;28;20064;-61
2023/04/25 09:34:49;;;;;;;8.48;1.33;;;;;;;9.40;99.73;101320.00;5030097;28;20091;-61
2023/04/25 09:37:23;;;;;;;6.93;1.23;;;;;;;9.64;97.83;101320.47;5031710;28;20088;-61
2023/04/25 09:39:54;;;;;;;6.57;1.17;;;;;;;9.54;95.26;101314.84;5031891;28;20053;-61
2023/04/25 09:42:24;;;;;;;9.18;1.60;;;;;;;9.69;97.05;101328.94;5030811;28;20064;-60
2023/04/25 09:44:54;;;;;;;5.45;1.02;;;;;;;9.59;95.08;101328.59;5031677;28;20049;-61
2023/04/25 09:47:28;;;;;;;9.35;1.38;;;;;;;9.61;97.95;101332.00;5031058;28;20519;-61
2023/04/25 09:49:59;;;;;;;7.25;1.42;;;;;;;9.77;97.65;101333.78;5031980;28;20401;-61
2023/04/25 09:52:28;;;;;;;6.03;1.10;;;;;;;9.89;92.26;101340.16;5035370;28;20132;-61
2023/04/25 09:54:56;;;;;;;6.03;1.13;;;;;;;10.26;93.96;101340.75;5035153;28;20045;-61
2023/04/25 09:57:25;;;;;;;8.30;1.60;;;;;;;10.67;95.55;101340.22;5034834;28;20058;-61
2023/04/25 09:59:55;;;;;;;7.32;1.42;;;;;;;10.85;87.53;101337.47;5035351;28;20480;-61
2023/04/25 10:02:26;;;;;;;8.35;1.42;;;;;;;11.29;90.24;101334.81;5032915;28;20126;-60
2023/04/25 10:04:56;;;;;;;6.85;1.10;;;;;;;11.26;79.37;101332.38;5029977;28;20050;-60
2023/04/25 10:07:28;;;;;;;6.30;1.17;;;;;;;11.60;86.25;101329.47;5030007;28;20056;-60
2023/04/25 10:10:02;;;;;;;7.60;1.20;;;;;;;11.88;83.22;101333.88;5031766;28;20091;-60
2023/04/25 10:12:30;;;;;;;5.45;1.05;;;;;;;12.25;83.83;101330.72;5031493;28;20048;-60
2023/04/25 10:14:59;;;;;;;6.03;1.25;;;;;;;12.74;87.86;101330.13;5034833;28;20073;-60
2023/04/25 10:17:28;;;;;;;4.57;1.10;;;;;;;13.07;85.24;101326.16;5032703;28;20045;-55
2023/04/25 10:19:56;;;;;;;4.55;1.25;;;;;;;12.65;72.34;101336.88;5030159;28;20618;-57
2023/04/25 10:22:30;;;;;;;5.15;1.00;;;;;;;12.04;71.71;101336.41;5033185;28;20381;-55
2023/04/25 10:25:03;;;;;;;5.00;1.08;;;;;;;12.01;71.95;101331.31;5030205;28;20053;-56
2023/04/25 10:27:32;;;;;;;6.90;1.20;;;;;;;11.98;74.44;101337.66;5030991;28;20056;-60
2023/04/25 10:30:06;;;;;;;7.00;1.20;;;;;;;12.07;76.76;101344.13;5031072;28;20049;-55
2023/04/25 10:32:34;;;;;;;10.18;1.38;;;;;;;11.77;75.16;101336.34;5031053;28;20099;-54
2023/04/25 10:35:15;;;;;;;7.18;1.55;;;;;;;11.85;76.15;101341.97;5029421;28;20382;-56
2023/04/25 10:38:01;;;;;;;6.93;1.27;;;;;;;12.25;74.84;101344.72;5034412;28;20496;-57
2023/04/25 10:40:31;;;;;;;7.38;1.25;;;;;;;12.17;70.31;101347.00;5034151;28;20492;-56
2023/04/25 10:43:32;;;;;;;5.15;1.20;;;;;;;11.32;68.94;101352.22;5034102;28;20068;-56
2023/04/25 10:46:01;;;;;;;6.68;1.30;;;;;;;11.29;78.35;101361.16;5033453;28;20454;-56
2023/04/25 10:48:30;;;;;;;10.35;1.90;;;;;;;11.18;88.03;101382.03;5030521;28;20111;-55
2023/04/25 10:51:10;;;;;;;7.22;1.30;;;;;;;10.91;92.26;101377.44;5028663;28;20053;-55
2023/04/25 10:53:39;;;;;;;7.13;1.10;;;;;;;10.54;98.20;101390.06;5032812;28;20041;-56
2023/04/25 10:56:18;;;;;;;6.32;1.45;;;;;;;10.58;99.63;101382.81;5030960;28;20080;-55
2023/04/25 10:58:46;;;;;;;6.22;1.30;;;;;;;10.67;100.00;101384.94;5030945;28;20045;-55
2023/04/25 11:01:22;;;;;;;6.97;1.30;;;;;;;10.91;100.00;101387.94;5034017;28;20430;-55
2023/04/25 11:03:50;;;;;;;7.00;1.50;;;;;;;10.58;95.98;101386.31;5033829;28;20404;-55
2023/04/25 11:06:33;;;;;;;8.80;1.45;;;;;;;10.80;95.55;101390.38;5033970;28;20073;-55
2023/04/25 11:09:02;;;;;;;6.60;1.38;;;;;;;10.84;95.31;101386.63;5029905;28;20447;-56
2023/04/25 11:11:32;;;;;;;6.35;1.40;;;;;;;11.19;95.26;101386.31;5029921;28;20041;-55
2023/04/25 11:14:01;;;;;;;6.63;1.20;;;;;;;11.16;86.66;101387.34;5033260;28;20464;-61
2023/04/25 11:16:32;;;;;;;7.05;1.20;;;;;;;11.49;87.19;101381.03;5033377;28;20045;-61
2023/04/25 11:19:00;;;;;;;4.45;1.10;;;;;;;11.71;89.45;101382.38;5033226;28;20065;-61
2023/04/25 11:21:28;;;;;;;5.97;1.27;;;;;;;11.62;82.81;101383.75;5033273;28;20107;-61
2023/04/25 11:24:01;;;;;;;7.22;1.00;;;;;;;12.11;83.57;101379.06;5031797;28;20111;-61
2023/04/25 11:26:31;;;;;;;8.50;1.30;;;;;;;12.25;80.91;101378.19;5029788;28;20448;-56
2023/04/25 11:29:01;;;;;;;6.22;1.20;;;;;;;12.63;75.24;101378.34;5029151;28;20149;-56
2023/04/25 11:31:30;;;;;;;7.45;1.38;;;;;;;12.65;80.44;101371.19;5027752;28;20053;-56